Terminal Aerodrome Forecast
Issued by NWS

Home | Current Version | Previous Version | Graphics & Text | Print | Product List | Glossary On
Versions: 1 2 3 4 5 6 7 8 9 10 11 12 13 14 15 16 17 18 19
685
FTUS42 KMHX 051141
TAFISO
TAF
KISO 051141Z 0512/0612 06005KT P6SM VCSH BKN007
     FM051800 03007KT 6SM SHRA VCTS OVC010CB
     FM060200 00000KT 6SM SHRA OVC007
     FM060500 00000KT 6SM -SHRA OVC007
     FM060700 VRB04KT 5SM -SHRA OVC003
      AMD LTD TO CLD VIS AND WIND=

USA.gov is the U.S. government's official web portal to all federal, state and local government web resources and services.